createdAt,value
2018-05-04T00:00:19.590Z,10.66
2018-05-04T00:02:51.857Z,10.77
2018-05-04T00:05:21.618Z,10.75
2018-05-04T00:07:49.669Z,10.69
2018-05-04T00:10:19.384Z,10.70
2018-05-04T00:12:48.445Z,10.57
2018-05-04T00:15:16.155Z,10.65
2018-05-04T00:17:46.301Z,10.61
2018-05-04T00:20:14.306Z,10.61
2018-05-04T00:22:41.874Z,10.53
2018-05-04T00:25:13.560Z,10.50
2018-05-04T00:27:41.358Z,10.55
2018-05-04T00:30:08.913Z,10.45
2018-05-04T00:32:37.305Z,10.44
2018-05-04T00:35:05.245Z,10.23
2018-05-04T00:37:33.550Z,10.02
2018-05-04T00:40:01.347Z,9.92
2018-05-04T00:42:30.140Z,9.97
2018-05-04T00:44:58.491Z,9.80
2018-05-04T00:47:26.103Z,9.79
2018-05-04T00:49:53.940Z,9.68
2018-05-04T00:52:21.483Z,9.39
2018-05-04T00:54:49.566Z,9.21
2018-05-04T00:57:17.357Z,9.19
2018-05-04T00:59:47.249Z,9.02
2018-05-04T01:02:15.021Z,9.03
2018-05-04T01:04:43.701Z,9.21
2018-05-04T01:07:12.093Z,9.13
2018-05-04T01:09:40.154Z,9.09
2018-05-04T01:12:08.451Z,8.99
2018-05-04T01:14:36.004Z,8.28
2018-05-04T01:17:03.663Z,8.40
2018-05-04T01:19:32.028Z,8.47
2018-05-04T01:21:59.605Z,8.91
2018-05-04T01:24:27.252Z,8.82
2018-05-04T01:26:54.858Z,8.76
2018-05-04T01:29:22.475Z,8.77
2018-05-04T01:31:50.031Z,8.39
2018-05-04T01:34:17.589Z,8.59
2018-05-04T01:36:45.123Z,8.45
2018-05-04T01:39:12.677Z,8.50
2018-05-04T01:41:40.204Z,8.50
2018-05-04T01:44:07.758Z,8.57
2018-05-04T01:46:35.387Z,8.75
2018-05-04T01:49:02.935Z,8.52
2018-05-04T01:51:30.462Z,8.59
2018-05-04T01:53:58.014Z,8.47
2018-05-04T01:56:25.546Z,8.45
2018-05-04T01:58:53.096Z,8.13
2018-05-04T02:01:20.649Z,8.18
2018-05-04T02:03:48.200Z,8.27
2018-05-04T02:06:15.752Z,8.44
2018-05-04T02:08:44.354Z,8.32
2018-05-04T02:11:11.930Z,8.44
2018-05-04T02:13:39.567Z,8.11
2018-05-04T02:16:07.089Z,7.96
2018-05-04T02:18:34.693Z,7.90
2018-05-04T02:21:02.667Z,8.18
2018-05-04T02:23:30.220Z,7.75
2018-05-04T02:25:57.774Z,7.64
2018-05-04T02:28:25.474Z,8.19
2018-05-04T02:30:53.055Z,8.32
2018-05-04T02:33:20.895Z,8.32
2018-05-04T02:35:48.532Z,8.28
2018-05-04T02:38:16.188Z,8.18
2018-05-04T02:40:44.579Z,8.16
2018-05-04T02:43:12.109Z,8.20
2018-05-04T02:45:39.662Z,8.28
2018-05-04T02:48:07.198Z,8.14
2018-05-04T02:50:34.742Z,8.03
2018-05-04T02:53:02.275Z,8.12
2018-05-04T02:55:29.845Z,7.99
2018-05-04T02:57:58.065Z,7.90
2018-05-04T03:00:27.061Z,7.97
2018-05-04T03:02:56.797Z,7.80
2018-05-04T03:05:24.403Z,7.78
2018-05-04T03:07:51.935Z,7.73
2018-05-04T03:10:19.561Z,7.61
2018-05-04T03:12:47.089Z,7.64
2018-05-04T03:15:14.640Z,7.68
2018-05-04T03:17:42.195Z,7.36
2018-05-04T03:20:09.741Z,7.68
2018-05-04T03:22:37.271Z,7.72
2018-05-04T03:25:04.941Z,7.80
2018-05-04T03:27:32.455Z,7.47
2018-05-04T03:30:00.058Z,7.76
2018-05-04T03:32:27.581Z,7.72
2018-05-04T03:34:55.133Z,7.56
2018-05-04T03:37:22.666Z,7.38
2018-05-04T03:39:50.217Z,7.36
2018-05-04T03:42:17.857Z,7.59
2018-05-04T03:44:46.265Z,7.49
2018-05-04T03:47:14.819Z,7.58
2018-05-04T03:49:42.396Z,7.66
2018-05-04T03:52:09.931Z,7.49
2018-05-04T03:54:37.501Z,7.52
2018-05-04T03:57:17.051Z,7.39
2018-05-04T03:59:56.682Z,7.29
2018-05-04T04:02:36.228Z,7.28
2018-05-04T04:05:03.805Z,7.17
2018-05-04T04:07:31.316Z,7.18
2018-05-04T04:09:58.862Z,7.27
2018-05-04T04:12:26.394Z,7.37
2018-05-04T04:14:54.022Z,7.30
2018-05-04T04:17:21.582Z,7.30
2018-05-04T04:19:49.125Z,7.35
2018-05-04T04:22:16.699Z,7.26
2018-05-04T04:24:44.904Z,7.26
2018-05-04T04:27:12.461Z,7.38
2018-05-04T04:29:40.196Z,7.37
2018-05-04T04:32:07.738Z,7.47
2018-05-04T04:34:35.266Z,7.56
2018-05-04T04:37:02.866Z,7.54
2018-05-04T04:39:30.544Z,7.52
2018-05-04T04:42:00.689Z,7.55
2018-05-04T04:44:28.523Z,7.37
2018-05-04T04:46:56.075Z,7.40
2018-05-04T04:49:23.601Z,7.59
2018-05-04T04:51:51.207Z,7.74
2018-05-04T04:54:18.727Z,7.83
2018-05-04T04:56:46.321Z,7.88
2018-05-04T04:59:13.833Z,8.08
2018-05-04T05:01:41.441Z,8.22
2018-05-04T05:04:09.012Z,8.22
2018-05-04T05:06:36.770Z,8.12
2018-05-04T05:09:04.369Z,8.31
2018-05-04T05:11:31.954Z,8.34
2018-05-04T05:13:59.547Z,8.41
2018-05-04T05:16:27.105Z,8.27
2018-05-04T05:18:54.630Z,8.09
2018-05-04T05:21:22.185Z,8.29
2018-05-04T05:23:49.732Z,8.26
2018-05-04T05:26:17.284Z,8.38
2018-05-04T05:28:44.888Z,8.62
2018-05-04T05:31:12.741Z,8.77
2018-05-04T05:33:40.297Z,8.92
2018-05-04T05:36:07.901Z,8.98
2018-05-04T05:38:35.552Z,9.05
2018-05-04T05:41:06.118Z,9.19
2018-05-04T05:43:33.754Z,9.32
2018-05-04T05:46:01.304Z,9.39
2018-05-04T05:48:28.863Z,9.52
2018-05-04T05:50:56.524Z,9.54
2018-05-04T05:53:24.062Z,9.70
2018-05-04T05:55:51.757Z,9.89
2018-05-04T05:58:20.374Z,10.03
2018-05-04T06:00:47.892Z,10.16
2018-05-04T06:03:15.521Z,10.35
2018-05-04T06:05:43.222Z,10.52
2018-05-04T06:08:10.878Z,10.66
2018-05-04T06:10:38.425Z,10.88
2018-05-04T06:13:05.978Z,11.09
2018-05-04T06:15:33.553Z,11.22
2018-05-04T06:18:02.161Z,11.34
2018-05-04T06:20:29.696Z,11.39
2018-05-04T06:22:57.243Z,11.51
2018-05-04T06:25:24.761Z,11.50
2018-05-04T06:27:52.321Z,11.62
2018-05-04T06:30:19.917Z,11.77
2018-05-04T06:32:48.415Z,11.84
2018-05-04T06:35:15.975Z,12.01
2018-05-04T06:37:43.530Z,12.13
2018-05-04T06:40:11.053Z,12.23
2018-05-04T06:42:38.656Z,12.35
2018-05-04T06:45:06.214Z,12.42
2018-05-04T06:47:33.758Z,12.60
2018-05-04T06:50:01.290Z,12.71
2018-05-04T06:52:28.893Z,12.78
2018-05-04T06:54:56.416Z,12.85
2018-05-04T06:57:23.970Z,12.97
2018-05-04T06:59:51.507Z,13.03
2018-05-04T07:02:19.781Z,13.10
2018-05-04T07:04:48.049Z,13.19
2018-05-04T07:07:15.594Z,13.27
2018-05-04T07:09:43.141Z,13.35
2018-05-04T07:12:10.732Z,13.47
2018-05-04T07:14:38.283Z,13.58
2018-05-04T07:17:05.888Z,13.61
2018-05-04T07:19:33.413Z,13.64
2018-05-04T07:22:01.022Z,13.83
2018-05-04T07:24:28.601Z,13.85
2018-05-04T07:26:56.197Z,14.07
2018-05-04T07:29:23.823Z,14.07
2018-05-04T07:31:51.395Z,14.07
2018-05-04T07:34:19.938Z,14.17
2018-05-04T07:36:47.455Z,14.23
2018-05-04T07:39:15.012Z,14.41
2018-05-04T07:41:42.626Z,14.47
2018-05-04T07:44:10.212Z,14.60
2018-05-04T07:46:37.763Z,14.61
2018-05-04T07:49:05.308Z,14.63
2018-05-04T07:51:32.819Z,14.69
2018-05-04T07:54:00.405Z,14.81
2018-05-04T07:56:36.823Z,14.87
2018-05-04T07:59:04.450Z,14.97
2018-05-04T08:01:32.030Z,14.98
2018-05-04T08:03:59.611Z,15.18
2018-05-04T08:06:27.129Z,15.18
2018-05-04T08:08:54.708Z,15.26
2018-05-04T08:11:22.237Z,15.30
2018-05-04T08:13:50.113Z,15.40
2018-05-04T08:16:17.640Z,15.76
2018-05-04T08:18:45.254Z,15.69
2018-05-04T08:21:12.813Z,15.88
2018-05-04T08:23:40.374Z,15.95
2018-05-04T08:26:07.893Z,15.92
2018-05-04T08:28:35.458Z,16.08
2018-05-04T08:31:03.004Z,16.16
2018-05-04T08:33:30.555Z,16.34
2018-05-04T08:35:58.113Z,16.38
2018-05-04T08:38:25.732Z,16.48
2018-05-04T08:40:53.432Z,16.40
2018-05-04T08:43:20.866Z,16.42
2018-05-04T08:45:48.417Z,16.49
2018-05-04T08:48:16.180Z,16.52
2018-05-04T08:50:43.617Z,16.57
2018-05-04T08:53:11.173Z,16.75
2018-05-04T08:55:38.700Z,16.90
2018-05-04T08:58:06.278Z,16.99
2018-05-04T09:00:33.805Z,17.08
2018-05-04T09:03:01.355Z,17.07
2018-05-04T09:05:29.057Z,17.12
2018-05-04T09:07:56.487Z,17.30
2018-05-04T09:10:24.039Z,17.21
2018-05-04T09:12:51.860Z,17.39
2018-05-04T09:15:19.441Z,17.41
2018-05-04T09:17:46.992Z,17.54
2018-05-04T09:20:14.563Z,17.72
2018-05-04T09:22:42.101Z,17.69
2018-05-04T09:25:09.653Z,17.71
2018-05-04T09:27:37.227Z,17.64
2018-05-04T09:30:04.785Z,17.78
2018-05-04T09:32:32.310Z,18.00
2018-05-04T09:34:59.861Z,18.28
2018-05-04T09:37:27.466Z,18.58
2018-05-04T09:39:55.044Z,18.48
2018-05-04T09:42:22.585Z,18.32
2018-05-04T09:44:50.149Z,18.34
2018-05-04T09:47:17.705Z,18.37
2018-05-04T09:49:45.375Z,18.47
2018-05-04T09:52:12.902Z,18.53
2018-05-04T09:54:40.486Z,18.39
2018-05-04T09:57:08.045Z,18.58
2018-05-04T09:59:35.607Z,18.66
2018-05-04T10:02:03.150Z,18.68
2018-05-04T10:04:30.738Z,18.94
2018-05-04T10:07:00.568Z,18.96
2018-05-04T10:09:31.051Z,19.07
2018-05-04T10:11:58.799Z,19.07
2018-05-04T10:14:26.348Z,18.92
2018-05-04T10:16:55.909Z,18.93
2018-05-04T10:19:26.206Z,19.17
2018-05-04T10:21:53.914Z,19.40
2018-05-04T10:24:24.375Z,19.10
2018-05-04T10:26:52.383Z,19.03
2018-05-04T10:29:19.937Z,18.95
2018-05-04T10:31:50.371Z,19.34
2018-05-04T10:34:21.382Z,19.35
2018-05-04T10:36:49.433Z,19.35
2018-05-04T10:39:20.878Z,19.57
2018-05-04T10:41:49.923Z,19.59
2018-05-04T10:44:17.686Z,19.46
2018-05-04T10:46:47.139Z,19.43
2018-05-04T10:49:15.376Z,19.67
2018-05-04T10:51:45.431Z,19.62
2018-05-04T10:54:15.732Z,19.81
2018-05-04T10:56:43.263Z,20.06
2018-05-04T10:59:10.834Z,20.04
2018-05-04T11:01:38.368Z,20.33
2018-05-04T11:04:05.912Z,20.34
2018-05-04T11:06:33.505Z,20.11
2018-05-04T11:09:01.070Z,20.41
2018-05-04T11:11:28.625Z,20.57
2018-05-04T11:13:56.153Z,20.12
2018-05-04T11:16:23.730Z,20.29
2018-05-04T11:18:51.757Z,20.15
2018-05-04T11:21:19.561Z,20.67
2018-05-04T11:23:47.143Z,20.64
2018-05-04T11:26:14.689Z,20.34
2018-05-04T11:28:42.216Z,20.85
2018-05-04T11:31:09.769Z,20.92
2018-05-04T11:33:37.299Z,20.89
2018-05-04T11:36:04.871Z,20.62
2018-05-04T11:38:32.495Z,21.20
2018-05-04T11:41:02.625Z,21.31
2018-05-04T11:43:30.158Z,21.24
2018-05-04T11:45:57.732Z,21.29
2018-05-04T11:48:25.659Z,21.35
2018-05-04T11:50:53.238Z,21.48
2018-05-04T11:53:20.788Z,21.35
2018-05-04T11:55:48.337Z,21.57
2018-05-04T11:58:18.212Z,21.76
2018-05-04T12:00:48.651Z,21.53
2018-05-04T12:03:16.746Z,21.42
2018-05-04T12:05:48.273Z,21.37
2018-05-04T12:08:16.655Z,21.49
2018-05-04T12:10:46.805Z,21.76
2018-05-04T12:13:15.357Z,21.92
2018-05-04T12:15:43.103Z,21.75
2018-05-04T12:18:10.641Z,21.92
2018-05-04T12:20:38.189Z,22.20
2018-05-04T12:23:05.716Z,22.18
2018-05-04T12:25:36.923Z,21.84
2018-05-04T12:28:04.732Z,22.07
2018-05-04T12:30:34.114Z,22.17
2018-05-04T12:33:02.882Z,22.43
2018-05-04T12:35:30.823Z,22.06
2018-05-04T12:37:58.879Z,21.65
2018-05-04T12:40:27.393Z,22.11
2018-05-04T12:42:55.183Z,22.26
2018-05-04T12:45:23.062Z,22.41
2018-05-04T12:47:51.505Z,22.29
2018-05-04T12:50:19.374Z,22.29
2018-05-04T12:52:46.970Z,22.18
2018-05-04T12:55:18.216Z,22.10
2018-05-04T12:57:46.246Z,22.29
2018-05-04T13:00:15.095Z,22.32
2018-05-04T13:02:45.946Z,22.68
2018-05-04T13:05:13.629Z,22.65
2018-05-04T13:07:41.154Z,22.53
2018-05-04T13:10:09.908Z,22.85
2018-05-04T13:12:40.910Z,22.93
2018-05-04T13:15:09.015Z,22.42
2018-05-04T13:17:36.869Z,22.50
2018-05-04T13:20:05.064Z,23.03
2018-05-04T13:22:33.683Z,22.79
2018-05-04T13:25:01.400Z,23.19
2018-05-04T13:27:29.018Z,22.88
2018-05-04T13:29:57.233Z,23.15
2018-05-04T13:32:24.806Z,23.02
2018-05-04T13:34:52.339Z,23.40
2018-05-04T13:37:19.882Z,23.20
2018-05-04T13:39:47.456Z,22.87
2018-05-04T13:42:15.015Z,23.18
2018-05-04T13:44:42.594Z,22.92
2018-05-04T13:47:10.142Z,23.16
2018-05-04T13:49:37.670Z,23.20
2018-05-04T13:52:05.225Z,23.25
2018-05-04T13:54:32.751Z,23.54
2018-05-04T13:57:00.374Z,23.47
2018-05-04T13:59:27.926Z,23.44
2018-05-04T14:01:55.529Z,23.25
2018-05-04T14:04:23.159Z,23.47
2018-05-04T14:06:50.761Z,23.31
2018-05-04T14:09:18.285Z,23.33
2018-05-04T14:11:45.839Z,23.15
2018-05-04T14:14:13.367Z,23.44
2018-05-04T14:16:40.946Z,23.63
2018-05-04T14:19:08.519Z,23.68
2018-05-04T14:21:36.144Z,23.93
2018-05-04T14:24:03.675Z,24.14
2018-05-04T14:26:31.290Z,24.01
2018-05-04T14:28:58.830Z,23.96
2018-05-04T14:31:27.409Z,23.80
2018-05-04T14:33:54.935Z,24.04
2018-05-04T14:36:22.553Z,24.16
2018-05-04T14:38:50.113Z,24.11
2018-05-04T14:41:17.691Z,24.01
2018-05-04T14:43:45.219Z,23.82
2018-05-04T14:46:12.765Z,24.00
2018-05-04T14:48:40.351Z,24.30
2018-05-04T14:51:07.872Z,23.87
2018-05-04T14:53:35.452Z,24.11
2018-05-04T14:56:02.982Z,24.18
2018-05-04T14:58:30.536Z,24.00
2018-05-04T15:00:58.118Z,23.90
2018-05-04T15:03:25.716Z,24.08
2018-05-04T15:05:53.266Z,23.84
2018-05-04T15:08:20.842Z,24.05
2018-05-04T15:10:48.419Z,23.90
2018-05-04T15:13:15.998Z,24.32
2018-05-04T15:15:43.511Z,24.33
2018-05-04T15:18:11.176Z,24.39
2018-05-04T15:20:38.831Z,24.69
2018-05-04T15:23:06.400Z,24.43
2018-05-04T15:25:33.932Z,24.63
2018-05-04T15:28:01.509Z,24.84
2018-05-04T15:30:29.068Z,24.56
2018-05-04T15:32:56.643Z,24.70
2018-05-04T15:35:24.293Z,24.61
2018-05-04T15:37:51.848Z,24.55
2018-05-04T15:40:19.366Z,24.57
2018-05-04T15:42:46.927Z,24.55
2018-05-04T15:45:14.473Z,24.51
2018-05-04T15:47:42.098Z,24.44
2018-05-04T15:53:09.474Z,24.52
2018-05-04T15:55:37.023Z,24.42
2018-05-04T15:58:04.591Z,24.10
2018-05-04T16:00:32.140Z,24.96
2018-05-04T16:03:00.290Z,24.61
2018-05-04T16:05:27.847Z,25.14
2018-05-04T16:07:55.433Z,25.04
2018-05-04T16:10:22.958Z,24.79
2018-05-04T16:12:50.552Z,24.92
2018-05-04T16:15:18.118Z,25.03
2018-05-04T16:17:45.681Z,25.32
2018-05-04T16:20:13.206Z,25.44
2018-05-04T16:22:40.758Z,25.59
2018-05-04T16:25:08.313Z,25.11
2018-05-04T16:27:35.910Z,25.71
2018-05-04T16:30:03.485Z,24.78
2018-05-04T16:32:31.312Z,25.16
2018-05-04T16:34:58.798Z,24.83
2018-05-04T16:37:26.322Z,24.99
2018-05-04T16:39:53.873Z,24.97
2018-05-04T16:42:21.473Z,25.17
2018-05-04T16:44:49.033Z,25.39
2018-05-04T16:47:22.427Z,25.22
2018-05-04T16:49:50.105Z,24.87
2018-05-04T16:52:17.635Z,24.99
2018-05-04T16:54:45.242Z,24.86
2018-05-04T16:57:12.870Z,24.61
2018-05-04T16:59:40.533Z,24.49
2018-05-04T17:02:08.069Z,24.98
2018-05-04T17:04:35.652Z,27.26
2018-05-04T17:07:03.174Z,28.11
2018-05-04T17:09:30.727Z,29.08
2018-05-04T17:11:58.279Z,28.16
2018-05-04T17:14:25.891Z,28.84
2018-05-04T17:16:53.404Z,29.82
2018-05-04T17:19:20.948Z,29.18
2018-05-04T17:21:48.487Z,28.25
2018-05-04T17:24:16.139Z,27.65
2018-05-04T17:26:43.668Z,27.80
2018-05-04T17:29:11.221Z,27.76
2018-05-04T17:31:38.741Z,27.83
2018-05-04T17:34:06.439Z,27.24
2018-05-04T17:36:33.900Z,27.65
2018-05-04T17:39:01.598Z,27.74
2018-05-04T17:41:29.131Z,26.76
2018-05-04T17:43:56.705Z,26.63
2018-05-04T17:46:24.262Z,26.64
2018-05-04T17:48:51.864Z,26.29
2018-05-04T17:51:19.389Z,25.93
2018-05-04T17:53:46.976Z,26.00
2018-05-04T17:56:14.489Z,25.88
2018-05-04T17:58:42.077Z,25.10
2018-05-04T18:01:09.625Z,25.48
2018-05-04T18:03:37.285Z,25.35
2018-05-04T18:06:05.907Z,24.59
2018-05-04T18:08:33.530Z,24.35
2018-05-04T18:11:01.835Z,24.13
2018-05-04T18:13:29.884Z,23.35
2018-05-04T18:16:02.450Z,23.12
2018-05-04T18:18:31.299Z,22.30
2018-05-04T18:20:58.911Z,22.05
2018-05-04T18:23:26.396Z,21.44
2018-05-04T18:25:53.949Z,21.47
2018-05-04T18:28:21.474Z,21.42
2018-05-04T18:30:49.053Z,20.92
2018-05-04T18:33:16.603Z,20.77
2018-05-04T18:35:44.529Z,20.72
2018-05-04T18:38:12.058Z,20.66
2018-05-04T18:40:39.609Z,20.38
2018-05-04T18:43:07.137Z,20.25
2018-05-04T18:45:34.694Z,20.13
2018-05-04T18:48:02.268Z,20.09
2018-05-04T18:50:29.824Z,19.90
2018-05-04T18:52:57.398Z,19.77
2018-05-04T18:55:25.110Z,19.61
2018-05-04T18:57:52.782Z,19.46
2018-05-04T19:00:20.579Z,19.30
2018-05-04T19:02:53.562Z,19.28
2018-05-04T19:05:21.132Z,19.06
2018-05-04T19:07:48.687Z,18.89
2018-05-04T19:10:18.899Z,18.83
2018-05-04T19:12:46.613Z,18.46
2018-05-04T19:15:14.337Z,18.53
2018-05-04T19:17:41.894Z,18.43
2018-05-04T19:20:09.550Z,18.22
2018-05-04T19:22:37.227Z,17.79
2018-05-04T19:25:05.151Z,17.51
2018-05-04T19:27:32.678Z,17.72
2018-05-04T19:30:00.231Z,17.72
2018-05-04T19:32:27.758Z,17.60
2018-05-04T19:34:55.314Z,17.18
2018-05-04T19:37:22.837Z,16.97
2018-05-04T19:39:50.425Z,17.03
2018-05-04T19:42:17.942Z,16.98
2018-05-04T19:44:45.566Z,16.51
2018-05-04T19:47:13.097Z,16.75
2018-05-04T19:49:40.624Z,16.73
2018-05-04T19:52:09.995Z,16.76
2018-05-04T19:54:39.696Z,16.69
2018-05-04T19:57:11.494Z,16.31
2018-05-04T19:59:42.183Z,16.35
2018-05-04T20:02:13.187Z,16.42
2018-05-04T20:04:43.850Z,16.23
2018-05-04T20:07:14.386Z,16.35
2018-05-04T20:09:42.147Z,16.16
2018-05-04T20:12:09.715Z,16.04
2018-05-04T20:14:37.262Z,15.97
2018-05-04T20:17:04.926Z,15.85
2018-05-04T20:19:33.450Z,15.65
2018-05-04T20:22:01.068Z,15.66
2018-05-04T20:24:28.601Z,15.73
2018-05-04T20:26:56.158Z,15.70
2018-05-04T20:29:23.687Z,15.57
2018-05-04T20:31:51.236Z,15.74
2018-05-04T20:34:18.770Z,15.73
2018-05-04T20:36:46.425Z,15.81
2018-05-04T20:39:13.985Z,15.72
2018-05-04T20:41:41.570Z,15.48
2018-05-04T20:44:09.133Z,15.21
2018-05-04T20:46:36.673Z,15.32
2018-05-04T20:49:04.329Z,15.23
2018-05-04T20:51:31.900Z,15.29
2018-05-04T20:53:59.634Z,15.10
2018-05-04T20:56:27.312Z,15.21
2018-05-04T20:58:54.931Z,15.60
2018-05-04T21:01:22.540Z,15.86
2018-05-04T21:03:50.065Z,15.94
2018-05-04T21:06:17.624Z,15.94
2018-05-04T21:08:45.213Z,16.05
2018-05-04T21:11:12.755Z,16.04
2018-05-04T21:13:40.544Z,16.08
2018-05-04T21:16:08.208Z,16.08
2018-05-04T21:18:35.859Z,16.07
2018-05-04T21:21:07.375Z,16.05
2018-05-04T21:23:38.310Z,16.07
2018-05-04T21:26:09.619Z,16.02
2018-05-04T21:28:40.727Z,16.03
2018-05-04T21:31:12.461Z,15.95
2018-05-04T21:33:46.920Z,15.95
2018-05-04T21:36:19.250Z,15.92
2018-05-04T21:38:51.368Z,15.84
2018-05-04T21:41:20.570Z,15.90
2018-05-04T21:43:51.182Z,15.85
2018-05-04T21:46:22.931Z,15.87
2018-05-04T21:48:54.246Z,15.83
2018-05-04T21:51:25.389Z,15.77
2018-05-04T21:53:59.998Z,15.77
2018-05-04T21:56:31.860Z,15.71
2018-05-04T21:59:00.090Z,15.64
2018-05-04T22:01:27.670Z,15.60
2018-05-04T22:03:57.073Z,15.59
2018-05-04T22:06:27.062Z,15.47
2018-05-04T22:08:54.773Z,15.37
2018-05-04T22:11:23.100Z,15.35
2018-05-04T22:13:52.361Z,15.25
2018-05-04T22:16:21.614Z,15.22
2018-05-04T22:18:51.175Z,15.07
2018-05-04T22:21:21.632Z,15.04
2018-05-04T22:23:50.164Z,15.03
2018-05-04T22:26:19.477Z,14.94
2018-05-04T22:28:48.137Z,14.87
2018-05-04T22:31:18.115Z,14.80
2018-05-04T22:33:46.407Z,14.78
2018-05-04T22:36:15.449Z,14.81
2018-05-04T22:38:44.801Z,14.78
2018-05-04T22:41:13.592Z,14.72
2018-05-04T22:43:42.851Z,14.28
2018-05-04T22:46:12.660Z,14.32
2018-05-04T22:48:41.911Z,13.97
2018-05-04T22:51:11.293Z,14.02
2018-05-04T22:53:40.417Z,13.76
2018-05-04T22:56:10.015Z,13.59
2018-05-04T22:58:39.542Z,13.56
2018-05-04T23:01:08.042Z,13.39
2018-05-04T23:03:37.249Z,13.59
2018-05-04T23:06:07.957Z,13.47
2018-05-04T23:08:38.726Z,13.64
2018-05-04T23:11:06.833Z,13.96
2018-05-04T23:13:36.383Z,13.99
2018-05-04T23:16:06.210Z,14.14
2018-05-04T23:18:35.665Z,14.09
2018-05-04T23:21:06.025Z,14.16
2018-05-04T23:23:33.568Z,14.09
2018-05-04T23:26:02.993Z,14.07
2018-05-04T23:28:30.617Z,14.17
2018-05-04T23:30:58.601Z,14.13
2018-05-04T23:33:26.148Z,14.11
2018-05-04T23:35:53.694Z,14.13
2018-05-04T23:38:21.458Z,14.12
2018-05-04T23:40:49.028Z,13.95
2018-05-04T23:43:16.586Z,13.81
2018-05-04T23:45:44.113Z,13.34
2018-05-04T23:48:11.669Z,13.31
2018-05-04T23:50:39.193Z,13.19
2018-05-04T23:53:06.816Z,13.21
2018-05-04T23:55:34.421Z,13.16
2018-05-04T23:58:02.028Z,13.14
